Time;durP1;ratioP1;P1;durP2;ratioP2;P2;SDS_P1;SDS_P2;PMS_P1;PMS_P2;Temp;Humidity;BMP_temperature;BMP_pressure;BME280_temperature;BME280_humidity;BME280_pressure;Samples;Min_cycle;Max_cycle;Signal;HPM_P1;HPM_P2
2021/04/28 00:00:41;;;;;;;18.53;9.57;;;;;;;6.38;43.76;99897.22;5038213;27;97982;-75
2021/04/28 00:03:09;;;;;;;23.23;9.57;;;;;;;6.41;44.02;99904.13;5022473;27;96744;-75
2021/04/28 00:05:35;;;;;;;22.13;8.60;;;;;;;6.38;43.58;99897.22;5050564;27;97106;-74
2021/04/28 00:11:41;;;;;;;17.07;9.60;;;;;;;6.30;43.92;99886.13;5070366;27;97005;-74
2021/04/28 00:14:08;;;;;;;17.83;7.90;;;;;;;6.19;44.25;99896.78;5047229;27;98126;-74
2021/04/28 00:16:34;;;;;;;17.27;9.20;;;;;;;6.25;43.96;99882.75;5058281;27;96860;-75
2021/04/28 00:19:00;;;;;;;17.70;9.00;;;;;;;6.25;43.96;99890.56;5056543;27;100878;-75
2021/04/28 00:21:27;;;;;;;20.53;9.07;;;;;;;6.26;43.87;99885.34;5069331;27;97654;-74
2021/04/28 00:23:52;;;;;;;19.77;9.27;;;;;;;6.25;43.98;99888.81;5050255;27;96710;-75
2021/04/28 00:26:18;;;;;;;17.53;9.63;;;;;;;6.23;44.22;99879.34;5037263;27;97050;-75
2021/04/28 00:28:44;;;;;;;18.00;8.20;;;;;;;6.20;44.33;99884.63;5049610;27;101400;-75
2021/04/28 00:31:10;;;;;;;18.27;8.50;;;;;;;6.20;44.28;99874.22;5065333;27;98443;-75
2021/04/28 00:33:36;;;;;;;22.13;10.20;;;;;;;6.14;44.43;99872.59;5046714;27;97270;-75
2021/04/28 00:36:03;;;;;;;23.53;11.60;;;;;;;6.11;44.31;99878.75;5042542;27;97140;-75
2021/04/28 00:38:28;;;;;;;27.70;9.57;;;;;;;6.06;44.60;99875.38;5054967;27;98305;-74
2021/04/28 00:40:54;;;;;;;23.27;9.17;;;;;;;6.08;44.56;99885.78;5074921;27;97455;-74
2021/04/28 00:43:20;;;;;;;20.50;9.43;;;;;;;6.05;44.32;99872.78;5058190;27;97276;-75
2021/04/28 00:45:46;;;;;;;20.10;9.43;;;;;;;6.01;44.76;99873.75;5057756;27;97047;-75
2021/04/28 00:48:12;;;;;;;19.50;8.63;;;;;;;6.00;44.64;99872.06;5056110;27;100968;-75
2021/04/28 00:50:43;;;;;;;17.73;8.60;;;;;;;5.93;45.09;99865.22;5057893;27;101165;-75
2021/04/28 00:53:12;;;;;;;18.00;8.63;;;;;;;5.90;45.30;99866.13;5057323;27;97009;-74
2021/04/28 00:55:40;;;;;;;18.77;9.17;;;;;;;5.86;45.38;99867.13;5057785;27;96877;-75
2021/04/28 00:58:06;;;;;;;18.90;9.30;;;;;;;5.89;45.01;99869.66;5092571;27;98123;-75
2021/04/28 01:00:33;;;;;;;19.83;9.37;;;;;;;5.86;45.47;99867.13;5047232;27;100992;-75
2021/04/28 01:02:59;;;;;;;22.27;9.83;;;;;;;5.75;45.08;99856.91;5053451;27;97132;-74
2021/04/28 01:05:25;;;;;;;26.97;9.90;;;;;;;5.88;45.36;99862.72;5041446;27;97084;-74
2021/04/28 01:07:51;;;;;;;18.73;10.33;;;;;;;5.83;45.07;99854.16;5056875;27;100969;-75
2021/04/28 01:10:24;;;;;;;18.27;9.50;;;;;;;5.70;44.84;99856.16;5036623;27;101719;-75
2021/04/28 01:12:50;;;;;;;19.35;9.38;;;;;;;5.68;45.34;99858.81;5035801;27;96917;-75
2021/04/28 01:15:19;;;;;;;20.57;10.33;;;;;;;5.67;45.22;99858.81;5036563;27;96824;-75
2021/04/28 01:17:53;;;;;;;23.63;10.20;;;;;;;5.58;45.42;99854.66;5054011;27;100946;-75
2021/04/28 01:20:20;;;;;;;19.27;10.07;;;;;;;5.55;45.20;99846.91;5029664;27;101123;-74
2021/04/28 01:22:47;;;;;;;19.00;8.77;;;;;;;5.51;46.00;99849.63;5057277;27;96942;-74
2021/04/28 01:25:16;;;;;;;21.93;9.87;;;;;;;5.51;45.47;99844.44;5056138;27;97035;-74
2021/04/28 01:27:46;;;;;;;17.93;8.70;;;;;;;5.49;45.55;99854.84;5057249;27;98052;-74
2021/04/28 01:30:13;;;;;;;18.10;8.93;;;;;;;5.50;45.46;99848.78;5039963;27;101382;-75
2021/04/28 01:32:43;;;;;;;22.47;10.03;;;;;;;5.41;45.62;99839.41;5040693;27;97108;-75
2021/04/28 01:35:10;;;;;;;19.40;9.57;;;;;;;5.44;45.50;99847.16;5038940;27;97267;-75
2021/04/28 01:37:38;;;;;;;21.00;9.67;;;;;;;5.44;45.61;99847.16;5040326;27;100975;-74
2021/04/28 01:40:04;;;;;;;17.77;8.80;;;;;;;5.42;45.93;99850.69;5053766;27;101553;-75
2021/04/28 01:42:31;;;;;;;20.03;9.80;;;;;;;5.34;45.86;99847.38;5037319;27;96947;-74
2021/04/28 01:44:57;;;;;;;18.33;9.17;;;;;;;5.35;45.75;99842.16;5037920;27;96725;-75
2021/04/28 01:47:22;;;;;;;24.43;9.73;;;;;;;5.35;45.91;99844.75;5035989;27;101643;-74
2021/04/28 01:49:52;;;;;;;19.93;9.03;;;;;;;5.33;45.94;99848.28;5052593;27;101008;-75
2021/04/28 01:52:19;;;;;;;20.17;9.87;;;;;;;5.24;46.26;99844.09;5036822;27;96719;-74
2021/04/28 01:54:48;;;;;;;21.40;9.90;;;;;;;5.21;46.59;99839.81;5037115;27;97110;-75
2021/04/28 01:57:16;;;;;;;20.70;10.10;;;;;;;5.18;46.55;99831.22;5035931;27;101699;-75
2021/04/28 02:00:05;;;;;;;19.43;9.37;;;;;;;5.12;46.47;99833.91;5029650;27;97513;-75
2021/04/28 02:02:47;;;;;;;19.83;9.67;;;;;;;5.14;46.72;99837.34;5038123;27;97236;-74
2021/04/28 02:05:13;;;;;;;18.63;8.97;;;;;;;5.09;46.43;99834.84;5022287;27;97332;-75
2021/04/28 02:07:41;;;;;;;21.47;10.20;;;;;;;5.07;46.67;99839.22;5034390;27;101196;-75
2021/04/28 02:10:08;;;;;;;17.93;9.37;;;;;;;5.03;46.55;99840.16;5045010;27;101854;-74
2021/04/28 02:12:35;;;;;;;17.33;9.37;;;;;;;4.99;47.09;99844.56;5070886;27;96705;-74
2021/04/28 02:15:06;;;;;;;21.03;10.23;;;;;;;5.03;46.59;99842.75;5022388;27;96892;-75
2021/04/28 02:17:34;;;;;;;21.50;10.50;;;;;;;4.98;46.76;99837.66;5027429;27;101448;-74
2021/04/28 02:20:13;;;;;;;23.77;10.13;;;;;;;4.92;47.31;99837.78;5049204;27;99397;-74
2021/04/28 02:22:46;;;;;;;24.17;11.27;;;;;;;4.89;47.39;99831.78;5024616;27;96847;-74
2021/04/28 02:25:16;;;;;;;19.70;9.93;;;;;;;4.81;47.67;99833.66;5044132;27;96734;-75
2021/04/28 02:27:58;;;;;;;22.57;10.60;;;;;;;4.76;47.41;99831.97;5046194;27;101319;-74
2021/04/28 02:30:26;;;;;;;18.80;9.70;;;;;;;4.72;47.53;99825.13;5043332;27;100750;-75
2021/04/28 02:32:53;;;;;;;22.97;10.83;;;;;;;4.67;48.43;99828.69;5077139;27;96729;-74
2021/04/28 02:35:58;;;;;;;22.40;10.90;;;;;;;4.68;48.21;99823.47;5068566;27;97524;-77
2021/04/28 02:38:48;;;;;;;19.73;10.43;;;;;;;4.60;48.55;99814.97;5062413;27;97092;-74
2021/04/28 02:41:30;;;;;;;20.93;9.67;;;;;;;4.67;48.06;99818.28;5062203;27;101962;-75
2021/04/28 02:43:57;;;;;;;18.00;10.00;;;;;;;4.66;48.34;99820.03;5051889;27;96710;-75
2021/04/28 02:46:29;;;;;;;23.33;10.60;;;;;;;4.68;47.83;99815.69;5041045;27;97181;-75
2021/04/28 02:48:57;;;;;;;25.60;11.00;;;;;;;4.67;48.14;99818.28;5021627;27;101306;-75
2021/04/28 02:51:44;;;;;;;21.43;10.63;;;;;;;4.63;48.01;99814.03;5051023;27;97822;-74
2021/04/28 02:54:28;;;;;;;22.37;10.23;;;;;;;4.59;48.32;99808.03;5079536;27;96981;-75
2021/04/28 02:56:54;;;;;;;27.37;10.53;;;;;;;4.65;48.32;99814.84;5041774;27;96809;-74
2021/04/28 02:59:21;;;;;;;29.03;11.40;;;;;;;4.64;48.13;99815.75;5042210;27;101188;-75
2021/04/28 03:01:49;;;;;;;29.20;10.63;;;;;;;4.64;48.14;99802.75;5038894;27;101740;-74
2021/04/28 03:04:15;;;;;;;21.43;9.90;;;;;;;4.65;48.14;99804.47;5021546;27;97140;-74
2021/04/28 03:07:00;;;;;;;25.87;11.53;;;;;;;4.59;48.22;99804.56;5058678;27;97097;-75
2021/04/28 03:09:26;;;;;;;25.63;10.80;;;;;;;4.56;48.50;99800.28;5039334;27;101259;-75
2021/04/28 03:11:52;;;;;;;23.70;10.33;;;;;;;4.54;48.24;99795.13;5042452;27;101509;-75
2021/04/28 03:14:21;;;;;;;22.77;11.40;;;;;;;4.62;48.93;99791.50;5055339;27;97574;-78
2021/04/28 03:16:47;;;;;;;21.27;11.27;;;;;;;4.51;48.41;99802.97;5038669;27;97074;-75
2021/04/28 03:19:14;;;;;;;25.73;11.77;;;;;;;4.49;48.72;99793.50;5054490;27;98124;-75
2021/04/28 03:21:44;;;;;;;19.90;11.07;;;;;;;4.41;48.76;99792.75;5039366;27;98332;-75
2021/04/28 03:24:11;;;;;;;23.80;10.13;;;;;;;4.43;49.03;99799.66;5021645;27;96932;-75
2021/04/28 03:26:37;;;;;;;24.97;10.63;;;;;;;4.40;49.11;99793.66;5022066;27;96898;-75
2021/04/28 03:29:03;;;;;;;20.60;10.27;;;;;;;4.34;49.07;99788.56;5034993;27;101123;-74
2021/04/28 03:31:29;;;;;;;23.87;11.73;;;;;;;4.31;49.36;99799.88;5032447;27;100489;-75
2021/04/28 03:33:54;;;;;;;23.67;11.27;;;;;;;4.39;48.66;99797.97;5041531;27;97074;-75
2021/04/28 03:36:20;;;;;;;24.17;11.73;;;;;;;4.37;49.17;99799.75;5059041;27;96938;-75
2021/04/28 03:39:11;;;;;;;30.80;11.30;;;;;;;4.36;49.11;99791.97;5053004;27;100718;-76
2021/04/28 03:41:36;;;;;;;21.60;11.63;;;;;;;4.38;49.02;99795.41;5024870;27;98250;-76
2021/04/28 03:44:03;;;;;;;29.17;12.03;;;;;;;4.39;48.92;99792.78;5017597;27;97092;-76
2021/04/28 03:46:29;;;;;;;29.10;12.87;;;;;;;4.31;48.81;99790.31;5035261;27;97086;-76
2021/04/28 03:48:55;;;;;;;21.27;11.87;;;;;;;4.32;48.98;99791.16;5017818;27;97339;-76
2021/04/28 03:51:24;;;;;;;20.43;11.00;;;;;;;4.34;49.01;99796.38;5018379;27;100836;-77
2021/04/28 03:54:11;;;;;;;28.57;12.43;;;;;;;4.36;48.98;99795.41;5036919;27;97021;-76
2021/04/28 03:56:39;;;;;;;20.60;11.43;;;;;;;4.36;49.17;99800.63;5018375;27;97128;-76
2021/04/28 03:59:05;;;;;;;22.87;11.97;;;;;;;4.48;48.61;99796.94;5033943;27;101202;-76
2021/04/28 04:01:30;;;;;;;24.43;12.37;;;;;;;4.59;48.83;99799.38;5018297;27;101685;-76
2021/04/28 04:03:56;;;;;;;27.70;11.63;;;;;;;4.60;48.64;99794.16;5017197;27;96802;-76
2021/04/28 04:06:40;;;;;;;25.17;10.80;;;;;;;4.61;48.40;99789.81;5026863;27;96980;-75
2021/04/28 04:09:06;;;;;;;24.87;11.57;;;;;;;4.68;48.41;99796.59;5041202;27;97988;-75
2021/04/28 04:11:33;;;;;;;26.07;12.27;;;;;;;4.79;48.15;99796.41;5030429;27;100778;-75
2021/04/28 04:13:59;;;;;;;24.40;12.63;;;;;;;4.78;48.33;99798.16;5017432;27;97030;-76
2021/04/28 04:16:25;;;;;;;23.57;11.63;;;;;;;4.96;48.14;99799.56;5001110;27;96738;-76
2021/04/28 04:18:51;;;;;;;23.97;11.90;;;;;;;5.00;47.79;99793.38;5000735;27;101239;-76
2021/04/28 04:21:18;;;;;;;29.57;11.80;;;;;;;5.15;47.72;99795.72;5000994;27;101706;-76
2021/04/28 04:23:54;;;;;;;26.67;11.30;;;;;;;5.36;47.22;99786.59;5031388;27;96742;-76
2021/04/28 04:26:36;;;;;;;27.60;11.53;;;;;;;5.39;46.97;99789.13;5037621;27;97221;-76
2021/04/28 04:29:03;;;;;;;25.37;13.17;;;;;;;5.52;46.86;99786.25;5032475;27;97874;-76
2021/04/28 04:31:39;;;;;;;31.67;12.93;;;;;;;5.51;46.79;99789.75;5003683;27;101821;-76
2021/04/28 04:34:24;;;;;;;28.27;12.37;;;;;;;5.52;46.73;99796.66;5033777;27;97010;-76
2021/04/28 04:37:08;;;;;;;25.93;12.23;;;;;;;5.37;46.53;99792.66;5019703;27;97378;-75
2021/04/28 04:39:52;;;;;;;31.27;13.30;;;;;;;5.34;46.91;99784.91;5036934;27;97083;-76
2021/04/28 04:42:29;;;;;;;24.07;12.27;;;;;;;5.65;46.77;99805.94;5019288;27;101794;-76
2021/04/28 04:45:09;;;;;;;24.10;12.30;;;;;;;5.86;46.18;99800.22;5017817;27;97101;-76
2021/04/28 04:47:35;;;;;;;23.53;12.13;;;;;;;5.94;46.04;99799.25;5017095;27;97242;-76
2021/04/28 04:50:02;;;;;;;27.60;13.10;;;;;;;5.91;46.22;99800.13;5045939;27;99283;-76
2021/04/28 04:52:28;;;;;;;25.37;12.10;;;;;;;5.92;46.05;99798.38;5017194;27;97862;-76
2021/04/28 04:54:53;;;;;;;24.50;12.80;;;;;;;5.94;46.14;99800.09;5016744;27;96714;-75
2021/04/28 04:57:19;;;;;;;29.53;13.60;;;;;;;5.91;45.98;99802.75;5016964;27;96897;-75
2021/04/28 04:59:44;;;;;;;27.07;12.40;;;;;;;5.87;46.20;99807.16;5016168;27;101052;-75
2021/04/28 05:02:10;;;;;;;28.63;12.43;;;;;;;5.89;46.15;99799.31;5016414;27;98004;-75
2021/04/28 05:04:35;;;;;;;26.63;12.83;;;;;;;5.92;46.39;99801.00;5017218;27;96690;-75
2021/04/28 05:07:01;;;;;;;25.90;13.00;;;;;;;6.54;45.32;99807.31;5017946;27;96874;-75
2021/04/28 05:09:26;;;;;;;25.70;13.37;;;;;;;6.37;45.25;99800.78;5027470;27;98256;-74
2021/04/28 05:11:52;;;;;;;26.80;13.47;;;;;;;6.40;45.40;99801.59;5039829;27;99104;-75
2021/04/28 05:14:18;;;;;;;32.43;14.17;;;;;;;6.37;45.67;99793.84;5040002;27;96904;-75
2021/04/28 05:16:43;;;;;;;28.87;12.70;;;;;;;6.50;45.80;99802.22;5026132;27;96772;-75
2021/04/28 05:19:09;;;;;;;26.83;14.37;;;;;;;6.63;45.62;99800.13;5038550;27;97753;-75
2021/04/28 05:21:36;;;;;;;30.80;14.17;;;;;;;6.72;45.37;99800.75;5010553;27;101246;-74
2021/04/28 05:24:05;;;;;;;33.80;14.23;;;;;;;7.23;44.62;99791.53;5026389;27;97154;-75
2021/04/28 05:26:57;;;;;;;25.37;13.87;;;;;;;8.04;43.33;99793.44;5030055;27;97047;-74
2021/04/28 05:29:22;;;;;;;26.00;13.17;;;;;;;9.81;40.40;99788.91;5051858;27;102588;-75
2021/04/28 05:31:48;;;;;;;26.50;13.53;;;;;;;9.33;40.75;99782.00;5044398;27;97857;-75
2021/04/28 05:34:14;;;;;;;27.27;14.53;;;;;;;8.01;42.28;99789.16;5043685;27;96897;-75
2021/04/28 05:36:39;;;;;;;31.20;13.63;;;;;;;7.52;43.30;99790.66;5033326;27;96983;-75
2021/04/28 05:39:05;;;;;;;27.07;13.43;;;;;;;7.45;43.93;99786.53;5033352;27;101367;-75
2021/04/28 05:41:31;;;;;;;30.07;13.80;;;;;;;7.34;44.02;99786.00;5065025;27;97404;-75
2021/04/28 05:43:57;;;;;;;25.30;13.03;;;;;;;7.13;44.10;99790.94;5048855;27;96814;-75
2021/04/28 05:46:23;;;;;;;28.37;13.63;;;;;;;7.11;44.33;99774.47;5048123;27;97264;-75
2021/04/28 05:48:49;;;;;;;33.97;14.00;;;;;;;7.17;43.94;99783.88;5049378;27;101365;-74
2021/04/28 05:51:15;;;;;;;30.13;13.60;;;;;;;7.15;44.17;99783.06;5047538;27;97832;-75
2021/04/28 05:53:41;;;;;;;34.00;13.60;;;;;;;7.24;43.91;99782.78;5039813;27;96806;-75
2021/04/28 05:56:07;;;;;;;30.07;13.80;;;;;;;7.43;43.46;99791.81;5049044;27;97282;-75
2021/04/28 05:58:33;;;;;;;30.20;13.00;;;;;;;7.57;43.29;99782.72;5049183;27;101348;-74
2021/04/28 06:01:00;;;;;;;32.07;15.00;;;;;;;7.77;42.77;99779.50;5049770;27;97297;-74
2021/04/28 06:03:25;;;;;;;33.00;13.57;;;;;;;8.04;42.32;99786.44;5034525;27;96712;-76
2021/04/28 06:05:51;;;;;;;29.27;14.30;;;;;;;8.22;42.13;99782.38;5038362;27;97087;-75
2021/04/28 06:08:17;;;;;;;32.10;14.30;;;;;;;8.38;41.53;99795.81;5057214;27;101574;-75
2021/04/28 06:10:42;;;;;;;36.20;13.57;;;;;;;8.82;40.86;99783.84;5035171;27;101832;-75
2021/04/28 06:13:09;;;;;;;28.70;14.73;;;;;;;9.38;39.81;99789.69;5049827;27;97001;-75
2021/04/28 06:15:35;;;;;;;29.20;14.52;;;;;;;9.46;39.99;99787.66;5060099;27;97190;-75
2021/04/28 06:18:01;;;;;;;32.13;14.00;;;;;;;9.36;39.89;99788.88;5051952;27;101711;-75
2021/04/28 06:20:26;;;;;;;27.87;14.50;;;;;;;9.53;39.13;99782.09;5079484;27;98953;-74
2021/04/28 06:22:52;;;;;;;26.27;14.45;;;;;;;10.04;38.51;99776.66;5074756;27;96848;-75
2021/04/28 06:25:18;;;;;;;29.52;14.40;;;;;;;9.65;38.74;99778.16;5037611;27;97553;-75
2021/04/28 06:27:43;;;;;;;30.63;15.57;;;;;;;9.56;39.51;99781.13;5074622;27;98347;-75
2021/04/28 06:30:10;;;;;;;31.90;14.80;;;;;;;10.07;38.78;99768.66;5057259;27;101730;-74
2021/04/28 06:32:36;;;;;;;30.13;15.60;;;;;;;9.63;40.06;99773.88;5058119;27;96678;-74
2021/04/28 06:35:04;;;;;;;30.15;15.40;;;;;;;9.52;40.18;99767.31;5050105;27;96874;-75
2021/04/28 06:37:29;;;;;;;29.60;15.32;;;;;;;9.39;40.27;99773.06;5071933;27;97926;-73
2021/04/28 06:39:55;;;;;;;29.90;13.98;;;;;;;9.32;40.49;99768.97;5031414;27;99463;-73
2021/04/28 06:42:20;;;;;;;31.77;13.65;;;;;;;9.15;42.82;99778.31;5018204;27;96990;-74
2021/04/28 06:44:47;;;;;;;30.73;16.02;;;;;;;9.09;40.84;99773.28;5023410;27;97094;-74
2021/04/28 06:47:14;;;;;;;31.07;15.43;;;;;;;9.08;40.72;99766.34;5009966;27;100921;-74
2021/04/28 06:49:40;;;;;;;31.10;16.83;;;;;;;8.94;40.92;99766.84;5013972;27;100648;-74
2021/04/28 06:52:05;;;;;;;41.00;19.65;;;;;;;9.05;40.77;99767.31;5027075;27;97181;-74
2021/04/28 06:54:31;;;;;;;45.78;19.92;;;;;;;9.14;41.34;99758.28;5018906;27;96913;-74
2021/04/28 06:56:57;;;;;;;36.90;17.45;;;;;;;9.26;41.36;99763.03;5024661;27;101052;-74
2021/04/28 06:59:22;;;;;;;31.27;16.33;;;;;;;9.24;41.04;99756.16;5026494;27;100251;-73
2021/04/28 07:01:52;;;;;;;30.88;16.58;;;;;;;9.19;41.09;99755.47;5021746;27;97273;-74
2021/04/28 07:04:21;;;;;;;30.92;15.45;;;;;;;9.11;41.24;99753.16;5017096;27;97770;-74
2021/04/28 07:06:48;;;;;;;31.40;14.27;;;;;;;9.11;41.97;99762.78;5042218;27;98824;-73
2021/04/28 07:09:14;;;;;;;28.27;15.20;;;;;;;9.06;41.68;99750.69;5041632;27;98573;-73
2021/04/28 07:11:40;;;;;;;36.83;15.90;;;;;;;9.11;41.97;99753.16;5070675;27;97359;-73
2021/04/28 07:14:06;;;;;;;33.70;17.70;;;;;;;9.12;42.21;99744.38;5027388;27;96775;-73
2021/04/28 07:16:31;;;;;;;31.95;16.25;;;;;;;9.35;42.07;99751.38;5030273;27;101725;-74
2021/04/28 07:18:57;;;;;;;29.40;15.82;;;;;;;9.33;41.84;99747.94;5020111;27;101164;-76
2021/04/28 07:21:23;;;;;;;30.50;16.60;;;;;;;9.28;42.26;99740.28;5016558;27;97466;-75
2021/04/28 07:23:49;;;;;;;35.08;15.95;;;;;;;9.37;41.59;99743.47;5035549;27;96786;-73
2021/04/28 07:26:14;;;;;;;27.95;15.77;;;;;;;9.45;41.78;99742.25;5016442;27;101534;-73
2021/04/28 07:28:41;;;;;;;35.83;17.05;;;;;;;9.64;41.78;99746.78;5013198;27;101672;-74
2021/04/28 07:31:07;;;;;;;30.52;16.75;;;;;;;9.82;41.25;99742.56;5018876;27;97011;-73
2021/04/28 07:33:33;;;;;;;36.47;16.35;;;;;;;9.98;41.18;99738.44;5025295;27;96887;-72
2021/04/28 07:35:59;;;;;;;32.15;16.15;;;;;;;10.47;40.73;99738.16;5043702;27;97391;-73
2021/04/28 07:38:25;;;;;;;33.78;15.73;;;;;;;13.38;35.81;99734.56;5022143;27;97916;-74
2021/04/28 07:40:50;;;;;;;36.95;17.02;;;;;;;14.79;33.75;99730.88;5048002;27;97638;-74
2021/04/28 07:43:16;;;;;;;31.58;17.10;;;;;;;15.98;32.34;99728.63;5037402;27;96835;-74
2021/04/28 07:45:41;;;;;;;30.13;15.85;;;;;;;17.71;30.17;99726.38;5019623;27;101564;-74
2021/04/28 07:48:14;;;;;;;29.23;16.45;;;;;;;19.53;28.71;99721.38;5019925;27;101095;-73
2021/04/28 07:50:40;;;;;;;38.42;19.25;;;;;;;20.97;26.74;99726.22;5054135;27;97245;-73
2021/04/28 07:53:05;;;;;;;24.05;15.13;;;;;;;21.67;25.35;99715.63;5063437;27;98014;-72
2021/04/28 07:55:32;;;;;;;29.27;15.77;;;;;;;22.14;24.82;99707.81;5049734;27;101422;-75
2021/04/28 07:58:00;;;;;;;27.02;14.88;;;;;;;22.52;24.35;99723.00;5051980;27;101587;-75
2021/04/28 08:00:28;;;;;;;28.33;16.15;;;;;;;23.02;23.64;99722.75;5048332;27;97109;-73
2021/04/28 08:02:54;;;;;;;24.95;15.25;;;;;;;23.97;23.71;99720.72;5039687;27;96900;-74
2021/04/28 08:05:20;;;;;;;29.80;17.95;;;;;;;24.52;22.57;99720.53;5072335;27;98109;-74
2021/04/28 08:07:46;;;;;;;24.48;16.08;;;;;;;24.65;22.41;99716.59;5056077;27;101088;-72
2021/04/28 08:10:12;;;;;;;30.65;19.00;;;;;;;25.24;22.12;99709.56;5073034;27;97464;-73
2021/04/28 08:12:38;;;;;;;27.05;15.38;;;;;;;25.39;21.92;99712.47;5039720;27;97572;-74
2021/04/28 08:15:05;;;;;;;21.80;15.80;;;;;;;26.37;21.35;99705.44;5051722;27;98467;-72
2021/04/28 08:17:31;;;;;;;27.67;15.43;;;;;;;26.40;21.41;99712.34;5061530;27;97858;-75
2021/04/28 08:19:57;;;;;;;27.67;16.38;;;;;;;26.49;21.10;99710.47;5074496;27;96889;-76
2021/04/28 08:22:23;;;;;;;23.30;15.27;;;;;;;27.03;20.62;99699.97;5040780;27;97311;-75
2021/04/28 08:24:50;;;;;;;22.98;15.52;;;;;;;26.53;21.11;99698.38;5048766;27;101574;-74
2021/04/28 08:27:15;;;;;;;24.55;15.05;;;;;;;27.23;20.75;99692.34;5073326;27;97784;-73
2021/04/28 08:29:41;;;;;;;24.08;14.85;;;;;;;27.79;20.41;99679.59;5058756;27;96697;-75
2021/04/28 08:32:07;;;;;;;24.25;14.88;;;;;;;28.11;20.18;99688.47;5075281;27;96724;-75
2021/04/28 08:34:32;;;;;;;19.83;14.00;;;;;;;28.12;20.37;99687.44;5057991;27;97486;-79
2021/04/28 08:36:58;;;;;;;21.30;14.27;;;;;;;28.02;20.43;99686.88;5058034;27;99841;-75
2021/04/28 08:39:24;;;;;;;24.83;14.63;;;;;;;27.70;20.39;99686.03;5056565;27;96784;-74
2021/04/28 08:41:51;;;;;;;20.75;13.32;;;;;;;28.49;20.12;99691.22;5058270;27;96823;-76
2021/04/28 08:44:17;;;;;;;23.75;13.25;;;;;;;28.73;20.50;99682.03;5040095;27;101716;-74
2021/04/28 08:46:43;;;;;;;24.92;13.43;;;;;;;28.81;19.86;99696.28;5058234;27;97851;-75
2021/04/28 08:49:10;;;;;;;25.80;14.82;;;;;;;28.75;20.17;99680.81;5057553;27;96713;-74
2021/04/28 08:51:37;;;;;;;21.33;14.43;;;;;;;27.63;20.75;99682.34;5057552;27;96910;-74
2021/04/28 08:54:04;;;;;;;21.52;13.95;;;;;;;28.18;20.54;99684.84;5036912;27;99378;-75
2021/04/28 08:56:30;;;;;;;21.67;14.68;;;;;;;27.28;21.15;99682.69;5041461;27;101199;-75
2021/04/28 08:58:58;;;;;;;24.30;14.38;;;;;;;27.47;21.40;99677.91;5047633;27;97299;-76
2021/04/28 09:01:31;;;;;;;23.25;15.02;;;;;;;27.07;21.36;99677.06;5034005;27;97443;-77
2021/04/28 09:03:58;;;;;;;24.17;15.05;;;;;;;27.61;21.57;99668.25;5047274;27;98055;-78
2021/04/28 09:06:28;;;;;;;20.80;14.38;;;;;;;27.69;21.19;99666.34;5036283;27;100980;-77
2021/04/28 09:08:54;;;;;;;20.88;14.48;;;;;;;27.38;21.87;99658.25;5049167;27;97392;-77
2021/04/28 09:11:49;;;;;;;28.08;14.65;;;;;;;27.81;21.75;99671.31;5064875;27;97208;-77
2021/04/28 09:14:17;;;;;;;23.10;15.68;;;;;;;27.40;21.71;99658.06;5067916;27;101198;-76
2021/04/28 09:17:04;;;;;;;24.27;13.48;;;;;;;26.28;22.33;99667.97;5046934;27;98415;-76
2021/04/28 09:20:15;;;;;;;19.90;13.00;;;;;;;25.00;23.11;99660.09;5068035;27;97636;-75
2021/04/28 09:23:10;;;;;;;19.95;12.27;;;;;;;24.19;24.30;99649.66;5065616;27;97374;-75
2021/04/28 09:25:55;;;;;;;19.23;11.75;;;;;;;23.37;25.53;99640.84;5065692;27;97319;-75
2021/04/28 09:28:52;;;;;;;21.35;12.68;;;;;;;23.00;26.49;99638.25;5027278;27;97819;-77
2021/04/28 09:31:19;;;;;;;23.03;13.50;;;;;;;22.79;26.25;99635.78;5042101;27;98146;-77
2021/04/28 09:33:46;;;;;;;21.48;12.20;;;;;;;22.01;27.37;99625.25;5043272;27;97053;-77
2021/04/28 09:36:13;;;;;;;22.05;13.75;;;;;;;21.91;27.88;99621.75;5024511;27;101562;-76
2021/04/28 09:38:49;;;;;;;19.25;12.05;;;;;;;21.62;27.57;99622.59;5059881;27;98299;-78
2021/04/28 09:41:36;;;;;;;18.00;11.80;;;;;;;21.02;28.49;99621.75;5077007;27;97360;-77
2021/04/28 09:44:16;;;;;;;21.60;10.20;;;;;;;20.29;27.75;99627.13;5078483;27;96834;-77
2021/04/28 09:47:14;;;;;;;10.17;7.70;;;;;;;20.20;27.75;99619.09;5076209;27;97984;-78
2021/04/28 09:49:56;;;;;;;14.15;7.43;;;;;;;19.77;27.87;99615.56;5043877;27;101686;-77
2021/04/28 09:52:24;;;;;;;15.57;7.65;;;;;;;19.74;28.35;99613.16;5044086;27;96819;-78
2021/04/28 09:54:52;;;;;;;14.82;8.40;;;;;;;19.61;28.89;99607.13;5059615;27;97339;-78
2021/04/28 09:57:19;;;;;;;17.38;9.80;;;;;;;19.40;29.75;99605.28;5049920;27;98843;-77
2021/04/28 09:59:51;;;;;;;16.42;9.65;;;;;;;19.37;30.07;99608.19;5044704;27;101004;-77
2021/04/28 10:02:25;;;;;;;18.75;9.15;;;;;;;18.94;30.36;99601.00;5047803;27;97585;-77
2021/04/28 10:04:52;;;;;;;14.68;8.40;;;;;;;18.67;30.34;99606.66;5028642;27;97447;-78
2021/04/28 10:07:25;;;;;;;15.55;8.18;;;;;;;18.22;30.01;99596.00;5044187;27;98528;-79
2021/04/28 10:09:55;;;;;;;16.63;8.23;;;;;;;18.28;30.53;99595.53;5062896;27;98302;-77
2021/04/28 10:12:23;;;;;;;14.25;8.02;;;;;;;18.19;30.23;99582.13;5031265;27;97240;-76
2021/04/28 10:14:49;;;;;;;16.20;10.93;;;;;;;17.85;30.77;99597.97;5045398;27;97084;-76
2021/04/28 10:17:17;;;;;;;17.35;10.38;;;;;;;17.83;30.75;99583.97;5043938;27;98156;-75
2021/04/28 10:19:43;;;;;;;15.32;8.00;;;;;;;17.81;31.19;99591.22;5043955;27;97871;-78
2021/04/28 10:22:19;;;;;;;14.02;6.90;;;;;;;17.70;30.68;99583.19;5033824;27;97292;-76
2021/04/28 10:24:50;;;;;;;11.27;7.18;;;;;;;17.60;30.88;99583.88;5035469;27;97267;-76
2021/04/28 10:27:17;;;;;;;12.75;7.07;;;;;;;17.64;31.37;99573.88;5036572;27;101280;-76
2021/04/28 10:29:47;;;;;;;9.80;6.60;;;;;;;17.47;31.47;99580.44;5043962;27;101059;-75
2021/04/28 10:32:15;;;;;;;14.80;6.28;;;;;;;17.58;31.17;99567.22;5054557;27;96740;-76
2021/04/28 10:35:00;;;;;;;12.98;5.70;;;;;;;17.56;30.91;99573.59;5020425;27;97296;-76
2021/04/28 10:37:31;;;;;;;9.32;6.13;;;;;;;17.54;31.09;99562.25;5035932;27;100939;-73
2021/04/28 10:39:57;;;;;;;10.77;6.05;;;;;;;17.19;31.25;99563.03;5053691;27;101640;-73
2021/04/28 10:42:34;;;;;;;9.10;5.93;;;;;;;17.00;30.95;99560.06;5030470;27;97259;-73
2021/04/28 10:45:02;;;;;;;8.50;5.55;;;;;;;16.86;31.18;99553.09;5065177;27;97130;-74
2021/04/28 10:47:44;;;;;;;12.00;5.97;;;;;;;16.84;31.41;99579.75;5039588;27;100828;-74
2021/04/28 10:50:13;;;;;;;;;;;;;;;16.69;31.80;99546.31;5075333;27;98123;-74
2021/04/28 10:52:50;;;;;;;13.18;5.38;;;;;;;16.83;32.08;99540.91;5053219;27;96805;-74
2021/04/28 10:55:42;;;;;;;11.65;6.10;;;;;;;16.84;32.00;99553.22;5063689;27;96828;-75
2021/04/28 10:58:26;;;;;;;8.73;5.18;;;;;;;17.00;31.75;99558.25;5035817;27;98014;-75
2021/04/28 11:01:04;;;;;;;9.27;4.97;;;;;;;16.92;31.47;99550.00;5056357;27;97924;-75
2021/04/28 11:03:30;;;;;;;10.30;5.00;;;;;;;16.98;31.42;99547.75;5057542;27;97292;-75
2021/04/28 11:05:59;;;;;;;10.63;5.05;;;;;;;16.97;31.77;99540.75;5053315;27;96907;-75
2021/04/28 11:08:30;;;;;;;8.75;5.20;;;;;;;16.88;32.02;99543.25;5038812;27;98186;-76
2021/04/28 11:10:56;;;;;;;10.48;5.38;;;;;;;16.87;31.91;99528.28;5055097;27;101679;-76
2021/04/28 11:13:24;;;;;;;10.32;5.45;;;;;;;16.91;32.15;99540.38;5058404;27;97155;-77
2021/04/28 11:15:54;;;;;;;7.78;4.97;;;;;;;16.95;32.10;99533.88;5059470;27;97006;-77
2021/04/28 11:18:38;;;;;;;11.98;6.03;;;;;;;16.83;31.79;99527.66;5058639;27;101042;-72
2021/04/28 11:21:17;;;;;;;11.73;5.75;;;;;;;16.78;32.23;99534.25;5058755;27;101188;-75
2021/04/28 11:24:04;;;;;;;10.60;5.72;;;;;;;16.82;32.26;99538.41;5075639;27;97727;-75
2021/04/28 11:26:30;;;;;;;10.32;5.53;;;;;;;16.86;31.88;99522.13;5075343;27;97613;-74
2021/04/28 11:28:57;;;;;;;12.95;5.30;;;;;;;16.67;32.26;99529.72;5059337;27;98110;-75
2021/04/28 11:31:23;;;;;;;10.68;5.57;;;;;;;16.79;32.75;99517.41;5041777;27;101646;-74
2021/04/28 11:33:49;;;;;;;11.52;5.63;;;;;;;16.95;32.12;99526.75;5038935;27;96734;-74
2021/04/28 11:36:17;;;;;;;7.90;4.93;;;;;;;16.90;32.05;99517.44;5047168;27;97094;-76
2021/04/28 11:38:45;;;;;;;8.50;5.07;;;;;;;16.88;31.97;99512.28;5075047;27;97952;-75